createdAt,value
2023-05-24T00:03:31.077Z,1.20
2023-05-24T00:08:34.144Z,1.00
2023-05-24T00:13:38.377Z,1.00
2023-05-24T00:18:41.224Z,1.80
2023-05-24T00:23:43.996Z,0.80
2023-05-24T00:28:48.118Z,1.00
2023-05-24T00:33:51.056Z,1.00
2023-05-24T00:38:54.785Z,1.20
2023-05-24T00:43:58.966Z,1.00
2023-05-24T00:49:01.885Z,0.80
2023-05-24T00:54:04.947Z,0.00
2023-05-24T00:59:09.151Z,1.00
2023-05-24T01:04:12.482Z,0.80
2023-05-24T01:09:20.904Z,1.00
2023-05-24T01:14:36.707Z,0.00
2023-05-24T01:19:52.456Z,1.00
2023-05-24T01:25:02.174Z,1.00
2023-05-24T01:30:08.370Z,0.60
2023-05-24T01:35:11.202Z,1.00
2023-05-24T01:40:14.542Z,1.00
2023-05-24T01:45:23.514Z,0.20
2023-05-24T01:50:28.115Z,0.20
2023-05-24T01:55:31.026Z,1.00
2023-05-24T02:00:35.429Z,0.20
2023-05-24T02:05:39.822Z,1.20
2023-05-24T02:10:42.729Z,0.80
2023-05-24T02:15:47.784Z,1.00
2023-05-24T02:20:50.827Z,0.00
2023-05-24T02:25:53.590Z,1.00
2023-05-24T02:30:57.819Z,0.00
2023-05-24T02:36:00.703Z,0.20
2023-05-24T02:41:03.606Z,1.00
2023-05-24T02:46:07.849Z,0.80
2023-05-24T02:51:10.758Z,0.20
2023-05-24T02:56:17.277Z,1.00
2023-05-24T03:01:22.693Z,1.00
2023-05-24T03:06:27.440Z,0.80
2023-05-24T03:11:30.397Z,0.00
2023-05-24T03:16:35.511Z,1.00
2023-05-24T03:21:39.879Z,0.00
2023-05-24T03:26:42.662Z,0.80
2023-05-24T03:31:47.242Z,0.40
2023-05-24T03:36:50.390Z,0.00
2023-05-24T03:41:53.953Z,1.00
2023-05-24T03:46:58.330Z,0.00
2023-05-24T03:52:01.355Z,0.00
2023-05-24T03:57:04.323Z,1.00
2023-05-24T04:02:08.740Z,1.00
2023-05-24T04:07:13.769Z,1.00
2023-05-24T04:12:16.642Z,0.20
2023-05-24T04:17:24.857Z,0.60
2023-05-24T04:22:27.810Z,1.00
2023-05-24T04:27:31.210Z,0.00
2023-05-24T04:32:36.807Z,0.00
2023-05-24T04:37:40.843Z,0.20
2023-05-24T04:42:43.681Z,0.20
2023-05-24T04:47:47.929Z,0.00
2023-05-24T04:52:50.794Z,0.00
2023-05-24T04:57:53.649Z,0.40
2023-05-24T05:02:58.021Z,0.00
2023-05-24T05:08:00.960Z,0.00
2023-05-24T05:13:03.944Z,0.00
2023-05-24T05:18:08.212Z,0.60
2023-05-24T05:23:11.065Z,0.00
2023-05-24T05:28:13.948Z,0.20
2023-05-24T05:33:18.231Z,0.00
2023-05-24T05:38:21.223Z,0.00
2023-05-24T05:43:25.086Z,0.00
2023-05-24T05:48:29.272Z,0.00
2023-05-24T05:53:34.341Z,0.20
2023-05-24T05:58:38.924Z,0.00
2023-05-24T06:03:43.359Z,0.00
2023-05-24T06:08:46.333Z,0.00
2023-05-24T06:13:49.384Z,0.00
2023-05-24T06:19:05.425Z,0.00
2023-05-24T06:24:10.207Z,0.20
2023-05-24T06:29:13.872Z,1.00
2023-05-24T06:34:18.954Z,0.00
2023-05-24T06:39:21.794Z,0.00
2023-05-24T06:44:30.960Z,0.00
2023-05-24T06:49:35.235Z,0.40
2023-05-24T06:54:38.367Z,1.00
2023-05-24T06:59:41.313Z,1.00
2023-05-24T07:04:45.947Z,1.00
2023-05-24T07:09:48.953Z,1.80
2023-05-24T07:14:51.788Z,3.20
2023-05-24T07:19:55.974Z,2.00
2023-05-24T07:24:58.927Z,2.00
2023-05-24T07:30:01.748Z,2.00
2023-05-24T07:35:06.864Z,2.00
2023-05-24T07:40:11.544Z,2.00
2023-05-24T07:45:15.055Z,1.60
2023-05-24T07:50:20.322Z,2.00
2023-05-24T07:55:23.514Z,1.00
2023-05-24T08:00:26.993Z,1.00
2023-05-24T08:05:31.272Z,1.80
2023-05-24T08:10:34.086Z,2.00
2023-05-24T08:15:37.100Z,2.00
2023-05-24T08:20:41.548Z,2.40
2023-05-24T08:25:44.799Z,2.00
2023-05-24T08:30:48.183Z,2.00
2023-05-24T08:35:52.982Z,1.00
2023-05-24T08:40:55.944Z,2.00
2023-05-24T08:45:59.206Z,2.00
2023-05-24T08:51:04.018Z,2.00
2023-05-24T08:56:07.348Z,2.00
2023-05-24T09:01:10.760Z,1.00
2023-05-24T09:06:17.802Z,2.00
2023-05-24T09:11:21.085Z,4.00
2023-05-24T09:16:23.973Z,1.60
2023-05-24T09:21:29.446Z,3.60
2023-05-24T09:26:32.307Z,3.20
2023-05-24T09:31:35.397Z,4.40
2023-05-24T09:36:41.873Z,5.40
2023-05-24T09:41:45.062Z,5.00
2023-05-24T09:46:48.012Z,5.40
2023-05-24T09:51:53.624Z,6.00
2023-05-24T09:56:56.543Z,5.00
2023-05-24T10:02:11.583Z,6.00
2023-05-24T10:07:16.155Z,5.80
2023-05-24T10:12:23.005Z,5.40
2023-05-24T10:17:27.909Z,6.00
2023-05-24T10:22:32.359Z,5.00
2023-05-24T10:27:35.309Z,6.80
2023-05-24T10:32:39.172Z,5.80
2023-05-24T10:37:44.184Z,8.40
2023-05-24T10:42:47.151Z,8.00
2023-05-24T10:47:50.151Z,6.00
2023-05-24T10:53:00.626Z,8.60
2023-05-24T10:58:03.607Z,6.00
2023-05-24T11:03:09.143Z,7.20
2023-05-24T11:08:13.630Z,5.60
2023-05-24T11:13:16.642Z,6.00
2023-05-24T11:18:21.819Z,6.00
2023-05-24T11:23:26.113Z,7.80
2023-05-24T11:28:29.008Z,7.80
2023-05-24T11:33:32.163Z,8.60
2023-05-24T11:38:36.663Z,8.60
2023-05-24T11:43:41.283Z,8.60
2023-05-24T11:48:44.197Z,7.80
2023-05-24T11:53:48.432Z,6.80
2023-05-24T11:58:51.818Z,7.40
2023-05-24T12:03:54.938Z,7.80
2023-05-24T12:08:59.460Z,7.20
2023-05-24T12:14:02.410Z,5.00
2023-05-24T12:19:09.719Z,5.00
2023-05-24T12:24:19.451Z,5.00
2023-05-24T12:29:22.569Z,4.80
2023-05-24T12:34:25.589Z,5.00
2023-05-24T12:39:31.903Z,5.00
2023-05-24T12:44:35.822Z,5.00
2023-05-24T12:49:38.753Z,5.20
2023-05-24T12:54:43.039Z,7.40
2023-05-24T12:59:46.025Z,6.80
2023-05-24T13:04:49.324Z,63.00
2023-05-24T13:09:53.897Z,82.33
2023-05-24T13:14:56.739Z,103.50
2023-05-24T13:20:00.064Z,150.00
2023-05-24T13:25:04.611Z,160.75
2023-05-24T13:30:09.118Z,190.20
2023-05-24T13:35:12.440Z,111.00
2023-05-24T13:40:17.062Z,84.33
2023-05-24T13:45:20.530Z,89.00
2023-05-24T13:50:26.762Z,93.00
2023-05-24T13:55:31.470Z,75.50
2023-05-24T14:00:36.069Z,67.75
2023-05-24T14:05:40.060Z,70.00
2023-05-24T14:10:47.084Z,71.50
2023-05-24T14:15:50.813Z,62.25
2023-05-24T14:20:54.218Z,61.00
2023-05-24T14:25:58.720Z,54.75
2023-05-24T14:31:01.686Z,53.25
2023-05-24T14:36:04.759Z,29.00
2023-05-24T14:41:10.027Z,45.00
2023-05-24T14:46:13.361Z,45.00
2023-05-24T14:51:17.247Z,43.50
2023-05-24T14:56:21.959Z,43.00
2023-05-24T15:01:24.958Z,43.00
2023-05-24T15:06:29.866Z,40.25
2023-05-24T15:11:34.633Z,40.00
2023-05-24T15:16:37.908Z,39.75
2023-05-24T15:21:45.256Z,38.00
2023-05-24T15:26:52.254Z,37.00
2023-05-24T15:31:55.098Z,36.75
2023-05-24T15:36:58.001Z,35.75
2023-05-24T15:42:02.637Z,35.00
2023-05-24T15:47:05.869Z,35.00
2023-05-24T15:52:09.549Z,35.00
2023-05-24T15:57:14.220Z,34.75
2023-05-24T16:02:20.647Z,36.00
2023-05-24T16:07:24.288Z,34.00
2023-05-24T16:12:30.146Z,32.00
2023-05-24T16:17:33.456Z,31.25
2023-05-24T16:22:36.506Z,29.67
2023-05-24T16:27:41.042Z,30.00
2023-05-24T16:32:45.414Z,29.00
2023-05-24T16:37:49.892Z,28.00
2023-05-24T16:42:54.499Z,24.67
2023-05-24T16:47:57.530Z,24.00
2023-05-24T16:53:00.701Z,23.00
2023-05-24T16:58:05.547Z,23.75
2023-05-24T17:03:08.785Z,20.50
2023-05-24T17:08:11.803Z,18.00
2023-05-24T17:13:16.168Z,18.00
2023-05-24T17:18:19.338Z,18.00
2023-05-24T17:23:22.432Z,17.00
2023-05-24T17:28:27.811Z,16.40
2023-05-24T17:33:31.396Z,16.60
2023-05-24T17:38:34.265Z,13.75
2023-05-24T17:43:40.137Z,13.20
2023-05-24T17:48:43.650Z,11.80
2023-05-24T17:53:46.686Z,13.00
2023-05-24T17:58:51.063Z,11.00
2023-05-24T18:03:54.520Z,11.00
2023-05-24T18:08:58.027Z,11.00
2023-05-24T18:14:03.934Z,10.00
2023-05-24T18:19:09.751Z,10.00
2023-05-24T18:24:12.878Z,8.80
2023-05-24T18:29:17.461Z,9.00
2023-05-24T18:34:20.614Z,10.00
2023-05-24T18:39:23.686Z,7.60
2023-05-24T18:44:28.014Z,7.20
2023-05-24T18:49:32.504Z,7.00
2023-05-24T18:54:35.642Z,6.80
2023-05-24T18:59:39.879Z,6.20
2023-05-24T19:04:48.058Z,5.80
2023-05-24T19:09:51.315Z,5.40
2023-05-24T19:14:55.676Z,5.20
2023-05-24T19:19:58.548Z,5.20
2023-05-24T19:25:01.400Z,4.80
2023-05-24T19:30:06.836Z,6.60
2023-05-24T19:35:12.092Z,6.00
2023-05-24T19:40:15.186Z,6.00
2023-05-24T19:45:19.749Z,6.00
2023-05-24T19:50:22.981Z,5.80
2023-05-24T19:55:25.957Z,6.00
2023-05-24T20:00:34.603Z,5.80
2023-05-24T20:05:38.027Z,6.80
2023-05-24T20:10:41.534Z,5.00
2023-05-24T20:15:45.890Z,5.60
2023-05-24T20:20:48.780Z,5.00
2023-05-24T20:25:51.657Z,6.00
2023-05-24T20:30:55.870Z,6.00
2023-05-24T20:35:59.217Z,5.20
2023-05-24T20:41:03.580Z,5.00
2023-05-24T20:46:07.846Z,5.60
2023-05-24T20:51:11.395Z,5.60
2023-05-24T20:56:17.854Z,4.20
2023-05-24T21:01:23.357Z,5.00
2023-05-24T21:06:26.431Z,5.00
2023-05-24T21:11:29.778Z,5.80
2023-05-24T21:16:34.414Z,5.00
2023-05-24T21:21:37.661Z,5.00
2023-05-24T21:26:40.734Z,5.00
2023-05-24T21:31:44.983Z,5.20
2023-05-24T21:36:47.831Z,5.00
2023-05-24T21:41:50.739Z,4.60
2023-05-24T21:46:55.694Z,5.00
2023-05-24T21:51:58.848Z,5.80
2023-05-24T21:57:01.881Z,5.00
2023-05-24T22:02:06.653Z,5.80
2023-05-24T22:07:09.452Z,5.40
2023-05-24T22:12:12.255Z,6.20
2023-05-24T22:17:17.220Z,5.00
2023-05-24T22:22:20.272Z,3.00
2023-05-24T22:27:23.482Z,5.00
2023-05-24T22:32:27.708Z,5.00
2023-05-24T22:37:30.569Z,3.00
2023-05-24T22:42:33.486Z,3.00
2023-05-24T22:47:39.895Z,3.00
2023-05-24T22:52:43.319Z,5.00
2023-05-24T22:57:46.288Z,3.80
2023-05-24T23:02:50.625Z,4.40
2023-05-24T23:07:54.972Z,5.00
2023-05-24T23:12:58.676Z,4.60
2023-05-24T23:18:05.597Z,3.00
2023-05-24T23:23:08.565Z,3.00
2023-05-24T23:28:11.360Z,3.00
2023-05-24T23:33:15.472Z,3.80
2023-05-24T23:38:18.382Z,4.40
2023-05-24T23:43:21.223Z,3.20
2023-05-24T23:48:25.495Z,3.00
2023-05-24T23:53:28.299Z,3.20
2023-05-24T23:58:31.969Z,2.80
